Current Weather

Seeb Intl

Seeb Intl, Oman (OOMS)

Report from: Friday, April 19, 2024 11:50 AM +04
Current time: Friday, April 19, 2024 1:10 PM +04

Nearby weather – Weather history – Daily summaries
Weather forecast

Temperature30.0°C (86.0°F)
Heat index29.5°C (85.2°F)
Dew point14.0°C (57.2°F)
Winds 8 kts (4.1 m/s, 9.2 mph) North (10°)
Clouds Sky clear
Altimeter29.80 in.Hg (1009 mB)
Relative humidity38 %
Density altitude2,085 ft. (635 m)
Remarks Ceiling and visibility OK
No significant changes expected in the next two hours
Flight conditions Visual Meteorological Conditions
Raw dataOOMS 190750Z 01008KT CAVOK 30/14 Q1009 NOSIG
An error has occurred. This application may no longer respond until reloaded. Reload 🗙